createdAt,value
2018-11-10T00:01:47.811Z,24.57
2018-11-10T00:03:49.818Z,26.53
2018-11-10T00:05:51.809Z,25.37
2018-11-10T00:07:53.821Z,25.30
2018-11-10T00:09:55.797Z,24.87
2018-11-10T00:11:57.797Z,23.73
2018-11-10T00:13:59.789Z,24.90
2018-11-10T00:16:01.773Z,25.30
2018-11-10T00:18:04.434Z,25.57
2018-11-10T00:20:06.469Z,26.40
2018-11-10T00:22:08.467Z,24.43
2018-11-10T00:24:10.474Z,24.20
2018-11-10T00:26:12.473Z,25.97
2018-11-10T00:28:14.465Z,24.63
2018-11-10T00:30:17.509Z,23.90
2018-11-10T00:32:19.506Z,24.90
2018-11-10T00:34:21.676Z,24.87
2018-11-10T00:36:23.665Z,25.70
2018-11-10T00:38:25.694Z,23.80
2018-11-10T00:40:27.685Z,24.00
2018-11-10T00:42:29.690Z,24.13
2018-11-10T00:44:31.722Z,23.00
2018-11-10T00:46:33.718Z,24.80
2018-11-10T00:48:35.758Z,23.30
2018-11-10T00:50:37.732Z,24.10
2018-11-10T00:52:39.789Z,22.37
2018-11-10T00:54:41.891Z,22.37
2018-11-10T00:56:43.905Z,23.93
2018-11-10T00:58:45.914Z,22.50
2018-11-10T01:00:47.926Z,19.53
2018-11-10T01:02:49.925Z,23.10
2018-11-10T01:04:51.940Z,21.80
2018-11-10T01:06:53.935Z,24.67
2018-11-10T01:08:55.949Z,23.27
2018-11-10T01:10:57.933Z,22.17
2018-11-10T01:12:59.922Z,23.63
2018-11-10T01:15:01.918Z,23.60
2018-11-10T01:17:04.073Z,23.53
2018-11-10T01:19:06.406Z,22.20
2018-11-10T01:21:08.397Z,22.77
2018-11-10T01:23:10.394Z,20.50
2018-11-10T01:25:12.398Z,20.47
2018-11-10T01:27:14.398Z,22.43
2018-11-10T01:29:16.407Z,22.57
2018-11-10T01:31:18.400Z,22.87
2018-11-10T01:33:20.389Z,20.03
2018-11-10T01:35:22.386Z,22.33
2018-11-10T01:37:24.545Z,23.73
2018-11-10T01:39:26.545Z,22.50
2018-11-10T01:41:28.562Z,21.20
2018-11-10T01:43:30.553Z,22.63
2018-11-10T01:45:32.549Z,23.03
2018-11-10T01:47:34.541Z,22.70
2018-11-10T01:49:36.546Z,24.60
2018-11-10T01:51:38.529Z,23.63
2018-11-10T01:53:40.527Z,22.20
2018-11-10T01:55:42.538Z,23.30
2018-11-10T01:57:44.538Z,26.17
2018-11-10T01:59:46.537Z,23.07
2018-11-10T02:01:48.538Z,23.50
2018-11-10T02:03:50.630Z,25.27
2018-11-10T02:05:52.629Z,27.87
2018-11-10T02:07:54.621Z,23.77
2018-11-10T02:09:56.621Z,25.70
2018-11-10T02:11:58.609Z,26.10
2018-11-10T02:14:00.595Z,23.53
2018-11-10T02:16:02.593Z,25.30
2018-11-10T02:18:04.860Z,22.40
2018-11-10T02:20:07.752Z,24.00
2018-11-10T02:22:09.754Z,24.83
2018-11-10T02:24:11.745Z,24.83
2018-11-10T02:26:13.740Z,23.60
2018-11-10T02:28:15.743Z,25.40
2018-11-10T02:30:17.750Z,23.83
2018-11-10T02:32:19.993Z,23.07
2018-11-10T02:34:21.986Z,21.50
2018-11-10T02:36:23.992Z,24.23
2018-11-10T02:38:26.005Z,23.67
2018-11-10T02:40:28.007Z,24.73
2018-11-10T02:42:29.989Z,20.73
2018-11-10T02:44:31.989Z,22.90
2018-11-10T02:46:33.994Z,24.87
2018-11-10T02:48:35.982Z,24.10
2018-11-10T02:50:37.985Z,24.20
2018-11-10T02:52:40.009Z,24.73
2018-11-10T02:54:41.975Z,25.80
2018-11-10T02:56:43.982Z,25.07
2018-11-10T02:58:45.970Z,23.53
2018-11-10T03:00:47.977Z,23.87
2018-11-10T03:02:49.969Z,24.60
2018-11-10T03:04:51.959Z,22.70
2018-11-10T03:06:53.965Z,22.77
2018-11-10T03:08:55.953Z,25.37
2018-11-10T03:10:58.013Z,23.83
2018-11-10T03:12:59.959Z,26.10
2018-11-10T03:15:02.154Z,23.20
2018-11-10T03:17:04.330Z,25.57
2018-11-10T03:19:06.372Z,26.30
2018-11-10T03:21:08.321Z,24.50
2018-11-10T03:23:10.319Z,26.60
2018-11-10T03:25:12.335Z,25.37
2018-11-10T03:27:14.326Z,20.40
2018-11-10T03:29:16.317Z,25.10
2018-11-10T03:31:18.322Z,24.37
2018-11-10T03:33:20.301Z,22.90
2018-11-10T03:35:22.309Z,22.70
2018-11-10T03:37:24.306Z,23.43
2018-11-10T03:39:26.302Z,25.10
2018-11-10T03:41:28.308Z,22.20
2018-11-10T03:43:30.289Z,25.03
2018-11-10T03:45:32.308Z,25.67
2018-11-10T03:47:34.291Z,25.60
2018-11-10T03:49:36.264Z,25.27
2018-11-10T03:51:38.266Z,26.00
2018-11-10T03:53:40.616Z,24.20
2018-11-10T03:55:42.622Z,25.77
2018-11-10T03:57:44.678Z,25.80
2018-11-10T03:59:46.630Z,26.33
2018-11-10T04:01:48.670Z,27.73
2018-11-10T04:03:57.315Z,26.27
2018-11-10T04:05:59.314Z,25.30
2018-11-10T04:08:01.297Z,21.67
2018-11-10T04:10:04.062Z,24.07
2018-11-10T04:12:06.074Z,22.20
2018-11-10T04:14:08.061Z,21.20
2018-11-10T04:16:10.053Z,24.50
2018-11-10T04:18:12.046Z,21.97
2018-11-10T04:20:14.034Z,22.80
2018-11-10T04:22:20.676Z,23.20
2018-11-10T04:24:22.665Z,23.03
2018-11-10T04:26:24.653Z,24.17
2018-11-10T04:28:26.651Z,27.23
2018-11-10T04:30:28.661Z,25.17
2018-11-10T04:32:30.671Z,25.93
2018-11-10T04:34:32.673Z,25.53
2018-11-10T04:36:34.704Z,24.73
2018-11-10T04:38:36.710Z,22.40
2018-11-10T04:40:38.693Z,24.77
2018-11-10T04:42:40.698Z,22.40
2018-11-10T04:44:42.689Z,23.53
2018-11-10T04:46:44.686Z,23.23
2018-11-10T04:48:46.682Z,24.63
2018-11-10T04:50:48.673Z,24.60
2018-11-10T04:52:50.682Z,23.20
2018-11-10T04:54:52.670Z,22.70
2018-11-10T04:56:54.690Z,21.93
2018-11-10T04:58:56.685Z,23.60
2018-11-10T05:00:58.678Z,20.20
2018-11-10T05:03:00.681Z,23.60
2018-11-10T05:05:02.689Z,23.33
2018-11-10T05:07:04.692Z,23.03
2018-11-10T05:09:07.413Z,21.87
2018-11-10T05:11:09.406Z,22.10
2018-11-10T05:13:11.410Z,23.50
2018-11-10T05:15:13.502Z,23.73
2018-11-10T05:17:15.501Z,22.93
2018-11-10T05:19:17.534Z,22.53
2018-11-10T05:21:19.543Z,22.87
2018-11-10T05:23:21.541Z,24.23
2018-11-10T05:25:23.538Z,24.60
2018-11-10T05:27:25.545Z,22.70
2018-11-10T05:29:27.549Z,22.00
2018-11-10T05:31:29.545Z,22.60
2018-11-10T05:33:31.554Z,23.47
2018-11-10T05:35:33.623Z,23.53
2018-11-10T05:37:35.761Z,23.00
2018-11-10T05:39:37.761Z,23.20
2018-11-10T05:41:39.877Z,22.47
2018-11-10T05:43:41.861Z,23.37
2018-11-10T05:45:43.854Z,21.53
2018-11-10T05:47:45.861Z,22.10
2018-11-10T05:49:47.829Z,21.87
2018-11-10T05:51:49.854Z,21.10
2018-11-10T05:53:51.841Z,21.50
2018-11-10T05:55:53.830Z,22.63
2018-11-10T05:57:55.842Z,20.93
2018-11-10T05:59:57.829Z,20.00
2018-11-10T06:01:59.825Z,20.70
2018-11-10T06:04:01.829Z,21.80
2018-11-10T06:06:04.247Z,21.20
2018-11-10T06:08:06.254Z,21.60
2018-11-10T06:10:09.595Z,21.47
2018-11-10T06:12:11.454Z,21.70
2018-11-10T06:14:13.444Z,20.93
2018-11-10T06:16:15.562Z,22.53
2018-11-10T06:18:17.475Z,20.97
2018-11-10T06:20:19.468Z,21.30
2018-11-10T06:22:21.478Z,20.57
2018-11-10T06:24:23.465Z,23.07
2018-11-10T06:26:25.851Z,20.40
2018-11-10T06:28:27.885Z,20.93
2018-11-10T06:30:29.874Z,20.50
2018-11-10T06:32:31.945Z,20.00
2018-11-10T06:34:33.890Z,21.67
2018-11-10T06:36:35.882Z,20.00
2018-11-10T06:38:37.893Z,21.93
2018-11-10T06:40:39.881Z,20.40
2018-11-10T06:42:42.545Z,21.90
2018-11-10T06:44:44.533Z,23.17
2018-11-10T06:46:46.521Z,21.30
2018-11-10T06:48:48.516Z,21.80
2018-11-10T06:50:50.513Z,21.43
2018-11-10T06:52:52.585Z,21.77
2018-11-10T06:54:54.521Z,20.40
2018-11-10T06:56:56.533Z,19.63
2018-11-10T06:58:58.565Z,21.10
2018-11-10T07:01:00.558Z,19.60
2018-11-10T07:03:02.554Z,18.80
2018-11-10T07:05:05.426Z,20.93
2018-11-10T07:07:07.669Z,17.60
2018-11-10T07:09:10.520Z,19.03
2018-11-10T07:11:12.514Z,18.57
2018-11-10T07:13:14.514Z,19.50
2018-11-10T07:15:16.508Z,20.90
2018-11-10T07:17:18.547Z,19.53
2018-11-10T07:19:20.514Z,19.80
2018-11-10T07:21:22.507Z,18.63
2018-11-10T07:23:24.516Z,18.30
2018-11-10T07:25:26.504Z,19.20
2018-11-10T07:27:28.497Z,19.53
2018-11-10T07:29:30.477Z,19.17
2018-11-10T07:31:32.478Z,20.13
2018-11-10T07:33:34.468Z,18.53
2018-11-10T07:35:36.466Z,15.50
2018-11-10T07:37:38.516Z,17.00
2018-11-10T07:39:40.481Z,16.33
2018-11-10T07:41:42.490Z,18.37
2018-11-10T07:43:44.542Z,16.37
2018-11-10T07:45:46.537Z,17.48
2018-11-10T07:47:48.542Z,16.87
2018-11-10T07:49:50.546Z,15.80
2018-11-10T07:51:52.550Z,16.43
2018-11-10T07:53:54.544Z,16.90
2018-11-10T07:55:56.582Z,17.53
2018-11-10T07:57:58.558Z,19.07
2018-11-10T08:00:00.561Z,19.77
2018-11-10T08:02:02.566Z,19.70
2018-11-10T08:04:04.593Z,20.10
2018-11-10T08:06:06.573Z,19.00
2018-11-10T08:08:08.578Z,17.83
2018-11-10T08:10:11.190Z,16.33
2018-11-10T08:12:13.191Z,16.40
2018-11-10T08:14:15.201Z,16.30
2018-11-10T08:16:17.358Z,17.33
2018-11-10T08:18:19.374Z,16.43
2018-11-10T08:20:21.386Z,15.63
2018-11-10T08:22:23.380Z,16.20
2018-11-10T08:24:25.385Z,16.30
2018-11-10T08:26:27.402Z,15.17
2018-11-10T08:28:29.410Z,15.30
2018-11-10T08:30:31.417Z,15.70
2018-11-10T08:32:33.418Z,15.50
2018-11-10T08:34:35.425Z,15.40
2018-11-10T08:36:37.422Z,13.77
2018-11-10T08:38:39.646Z,13.00
2018-11-10T08:40:41.651Z,14.10
2018-11-10T08:42:43.641Z,14.10
2018-11-10T08:44:45.650Z,14.40
2018-11-10T08:46:47.670Z,15.70
2018-11-10T08:48:49.721Z,14.20
2018-11-10T08:50:51.729Z,15.30
2018-11-10T08:52:53.793Z,15.30
2018-11-10T08:54:55.830Z,14.50
2018-11-10T08:56:57.918Z,14.03
2018-11-10T08:59:00.021Z,15.27
2018-11-10T09:01:01.993Z,13.57
2018-11-10T09:03:04.365Z,14.27
2018-11-10T09:05:07.350Z,16.67
2018-11-10T09:07:09.360Z,13.20
2018-11-10T09:09:11.574Z,14.83
2018-11-10T09:11:13.561Z,14.20
2018-11-10T09:13:15.564Z,15.70
2018-11-10T09:15:17.649Z,13.67
2018-11-10T09:17:19.572Z,15.03
2018-11-10T09:19:21.582Z,16.60
2018-11-10T09:21:23.702Z,15.10
2018-11-10T09:23:25.618Z,16.13
2018-11-10T09:25:27.621Z,15.27
2018-11-10T09:27:29.617Z,12.93
2018-11-10T09:29:31.629Z,15.30
2018-11-10T09:31:33.629Z,15.80
2018-11-10T09:33:35.622Z,14.13
2018-11-10T09:35:37.638Z,15.00
2018-11-10T09:37:39.638Z,15.00
2018-11-10T09:39:41.661Z,14.07
2018-11-10T09:41:43.654Z,15.07
2018-11-10T09:43:45.666Z,16.40
2018-11-10T09:45:47.678Z,16.10
2018-11-10T09:47:49.684Z,14.93
2018-11-10T09:49:51.694Z,15.30
2018-11-10T09:51:53.726Z,14.93
2018-11-10T09:53:55.726Z,15.80
2018-11-10T09:55:57.736Z,17.70
2018-11-10T09:57:59.726Z,14.00
2018-11-10T10:00:01.940Z,15.10
2018-11-10T10:02:04.584Z,13.77
2018-11-10T10:04:06.506Z,17.30
2018-11-10T10:06:08.522Z,16.83
2018-11-10T10:08:10.529Z,15.27
2018-11-10T10:10:14.153Z,14.93
2018-11-10T10:12:16.152Z,17.50
2018-11-10T10:14:18.137Z,15.73
2018-11-10T10:16:20.482Z,16.37
2018-11-10T10:18:22.361Z,12.73
2018-11-10T10:20:24.365Z,13.90
2018-11-10T10:22:26.366Z,14.47
2018-11-10T10:24:28.360Z,15.27
2018-11-10T10:26:30.357Z,15.17
2018-11-10T10:28:33.214Z,13.87
2018-11-10T10:30:35.133Z,13.43
2018-11-10T10:32:37.140Z,16.87
2018-11-10T10:34:39.256Z,12.50
2018-11-10T10:36:41.158Z,12.43
2018-11-10T10:38:43.154Z,12.07
2018-11-10T10:40:45.141Z,13.80
2018-11-10T10:42:47.537Z,14.37
2018-11-10T10:44:49.510Z,13.03
2018-11-10T10:46:51.543Z,13.77
2018-11-10T10:48:53.657Z,13.20
2018-11-10T10:50:55.549Z,12.67
2018-11-10T10:52:57.533Z,11.63
2018-11-10T10:54:59.528Z,12.70
2018-11-10T10:57:01.553Z,9.93
2018-11-10T10:59:03.533Z,11.90
2018-11-10T11:01:11.445Z,13.60
2018-11-10T11:05:22.778Z,12.83
2018-11-10T11:07:25.410Z,10.10
2018-11-10T11:09:27.412Z,11.97
2018-11-10T11:11:29.420Z,12.27
2018-11-10T11:13:31.418Z,10.17
2018-11-10T11:15:33.546Z,12.70
2018-11-10T11:17:35.412Z,11.77
2018-11-10T11:19:37.411Z,10.70
2018-11-10T11:21:39.428Z,11.10
2018-11-10T11:23:41.422Z,9.47
2018-11-10T11:25:43.430Z,10.23
2018-11-10T11:27:45.444Z,11.20
2018-11-10T11:29:47.460Z,11.43
2018-11-10T11:31:49.441Z,7.83
2018-11-10T11:33:51.503Z,9.77
2018-11-10T11:35:53.454Z,11.63
2018-11-10T11:37:55.450Z,8.90
2018-11-10T11:39:57.462Z,9.67
2018-11-10T11:41:59.473Z,10.90
2018-11-10T11:44:01.466Z,11.50
2018-11-10T11:46:03.818Z,10.20
2018-11-10T11:48:05.809Z,11.60
2018-11-10T11:50:09.297Z,8.63
2018-11-10T11:52:11.298Z,12.00
2018-11-10T11:54:13.289Z,11.30
2018-11-10T11:56:15.293Z,11.20
2018-11-10T11:58:17.356Z,11.43
2018-11-10T12:00:19.297Z,10.37
2018-11-10T12:02:21.365Z,10.90
2018-11-10T12:04:23.360Z,10.37
2018-11-10T12:06:25.328Z,12.43
2018-11-10T12:08:27.309Z,11.50
2018-11-10T12:10:29.318Z,11.27
2018-11-10T12:12:31.315Z,11.07
2018-11-10T12:14:33.301Z,10.77
2018-11-10T12:16:35.347Z,9.87
2018-11-10T12:18:37.898Z,10.00
2018-11-10T12:20:39.925Z,11.40
2018-11-10T12:22:42.141Z,12.10
2018-11-10T12:24:44.134Z,11.43
2018-11-10T12:26:46.160Z,12.80
2018-11-10T12:28:48.130Z,11.60
2018-11-10T12:30:50.125Z,12.57
2018-11-10T12:32:52.120Z,11.73
2018-11-10T12:34:54.109Z,11.13
2018-11-10T12:36:56.109Z,12.00
2018-11-10T12:38:58.191Z,12.30
2018-11-10T12:41:00.101Z,11.60
2018-11-10T12:43:02.085Z,12.47
2018-11-10T12:45:05.042Z,12.70
2018-11-10T12:47:07.079Z,11.80
2018-11-10T12:49:09.511Z,13.10
2018-11-10T12:51:11.458Z,11.07
2018-11-10T12:53:13.457Z,13.47
2018-11-10T12:55:15.812Z,12.50
2018-11-10T12:57:17.737Z,14.47
2018-11-10T12:59:19.726Z,12.03
2018-11-10T13:01:21.725Z,14.20
2018-11-10T13:03:23.725Z,13.67
2018-11-10T13:05:25.735Z,12.53
2018-11-10T13:07:27.747Z,13.20
2018-11-10T13:09:29.750Z,12.60
2018-11-10T13:11:31.930Z,13.00
2018-11-10T13:13:33.766Z,12.43
2018-11-10T13:15:35.741Z,11.20
2018-11-10T13:17:38.370Z,12.00
2018-11-10T13:19:40.310Z,13.50
2018-11-10T13:21:42.401Z,13.23
2018-11-10T13:23:44.406Z,11.00
2018-11-10T13:25:46.409Z,11.63
2018-11-10T13:27:48.406Z,14.07
2018-11-10T13:29:50.398Z,16.07
2018-11-10T13:31:52.469Z,15.90
2018-11-10T13:33:54.413Z,16.70
2018-11-10T13:35:56.401Z,16.20
2018-11-10T13:37:58.432Z,16.10
2018-11-10T13:40:00.422Z,17.70
2018-11-10T13:42:02.442Z,15.53
2018-11-10T13:44:04.569Z,17.33
2018-11-10T13:46:06.458Z,23.63
2018-11-10T13:48:08.462Z,18.27
2018-11-10T13:50:10.958Z,17.83
2018-11-10T13:52:13.574Z,16.37
2018-11-10T13:54:15.153Z,17.80
2018-11-10T13:56:17.151Z,17.90
2018-11-10T13:58:19.149Z,18.40
2018-11-10T14:00:21.154Z,17.60
2018-11-10T14:02:23.346Z,19.37
2018-11-10T14:04:25.358Z,19.27
2018-11-10T14:06:27.352Z,19.50
2018-11-10T14:08:29.353Z,17.80
2018-11-10T14:10:31.417Z,17.13
2018-11-10T14:12:33.411Z,16.50
2018-11-10T14:14:35.390Z,16.60
2018-11-10T14:16:44.180Z,17.23
2018-11-10T14:18:46.194Z,16.83
2018-11-10T14:20:48.317Z,16.30
2018-11-10T14:22:50.224Z,18.10
2018-11-10T14:24:52.269Z,15.40
2018-11-10T14:26:54.281Z,16.27
2018-11-10T14:28:56.285Z,16.37
2018-11-10T14:33:07.090Z,17.00
2018-11-10T14:35:09.950Z,16.30
2018-11-10T14:37:12.105Z,15.97
2018-11-10T14:39:14.130Z,16.53
2018-11-10T14:41:16.130Z,17.93
2018-11-10T14:43:18.125Z,16.97
2018-11-10T14:45:20.138Z,17.57
2018-11-10T14:47:22.137Z,17.97
2018-11-10T14:49:24.138Z,17.47
2018-11-10T14:51:26.334Z,15.30
2018-11-10T14:53:28.330Z,15.50
2018-11-10T14:55:30.338Z,15.60
2018-11-10T14:57:32.337Z,16.97
2018-11-10T14:59:34.351Z,17.00
2018-11-10T15:01:36.349Z,17.80
2018-11-10T15:03:38.433Z,18.50
2018-11-10T15:05:40.438Z,17.17
2018-11-10T15:07:43.025Z,16.40
2018-11-10T15:09:45.033Z,16.00
2018-11-10T15:11:47.092Z,16.40
2018-11-10T15:13:49.057Z,17.13
2018-11-10T15:15:51.063Z,15.90
2018-11-10T15:17:53.094Z,16.70
2018-11-10T15:19:55.065Z,15.83
2018-11-10T15:21:57.053Z,14.73
2018-11-10T15:23:59.070Z,16.23
2018-11-10T15:26:01.058Z,15.93
2018-11-10T15:28:03.053Z,18.00
2018-11-10T15:30:07.349Z,19.07
2018-11-10T15:32:09.330Z,21.87
2018-11-10T15:34:11.320Z,16.60
2018-11-10T15:36:13.310Z,20.23
2018-11-10T15:38:15.299Z,17.57
2018-11-10T15:40:17.966Z,17.93
2018-11-10T15:42:19.957Z,20.67
2018-11-10T15:44:22.505Z,16.53
2018-11-10T15:46:24.500Z,17.40
2018-11-10T15:48:26.494Z,16.23
2018-11-10T15:50:28.512Z,18.20
2018-11-10T15:52:30.513Z,15.40
2018-11-10T15:54:32.513Z,15.00
2018-11-10T15:56:34.518Z,15.97
2018-11-10T15:58:36.509Z,15.20
2018-11-10T16:00:38.501Z,15.40
2018-11-10T16:02:40.849Z,17.33
2018-11-10T16:04:42.854Z,15.93
2018-11-10T16:06:44.825Z,14.47
2018-11-10T16:08:46.801Z,14.87
2018-11-10T16:10:48.796Z,16.40
2018-11-10T16:12:50.789Z,14.07
2018-11-10T16:14:52.791Z,16.10
2018-11-10T16:16:54.789Z,16.00
2018-11-10T16:18:56.787Z,15.27
2018-11-10T16:20:58.821Z,15.13
2018-11-10T16:23:00.795Z,15.17
2018-11-10T16:25:02.832Z,14.53
2018-11-10T16:27:04.975Z,13.70
2018-11-10T16:29:06.972Z,14.80
2018-11-10T16:31:08.974Z,15.93
2018-11-10T16:33:10.971Z,12.43
2018-11-10T16:35:12.980Z,14.83
2018-11-10T16:37:15.022Z,15.33
2018-11-10T16:39:16.993Z,14.83
2018-11-10T16:41:18.998Z,15.87
2018-11-10T16:43:20.989Z,16.93
2018-11-10T16:45:22.994Z,15.10
2018-11-10T16:47:24.981Z,14.40
2018-11-10T16:49:26.981Z,15.60
2018-11-10T16:51:29.057Z,15.50
2018-11-10T16:53:31.050Z,16.80
2018-11-10T16:55:33.038Z,15.27
2018-11-10T16:57:35.091Z,16.60
2018-11-10T16:59:37.089Z,15.63
2018-11-10T17:01:39.133Z,15.43
2018-11-10T17:03:41.130Z,15.37
2018-11-10T17:05:43.125Z,16.17
2018-11-10T17:07:45.124Z,16.80
2018-11-10T17:09:47.118Z,16.50
2018-11-10T17:11:49.121Z,14.30
2018-11-10T17:13:51.113Z,15.10
2018-11-10T17:15:53.109Z,16.10
2018-11-10T17:17:55.105Z,14.30
2018-11-10T17:19:57.103Z,15.50
2018-11-10T17:21:59.506Z,15.70
2018-11-10T17:24:01.286Z,14.20
2018-11-10T17:26:03.424Z,15.03
2018-11-10T17:28:05.475Z,14.63
2018-11-10T17:30:09.941Z,14.30
2018-11-10T17:32:11.884Z,15.50
2018-11-10T17:34:13.890Z,15.73
2018-11-10T17:36:15.886Z,15.20
2018-11-10T17:38:17.881Z,14.53
2018-11-10T17:40:19.941Z,15.00
2018-11-10T17:42:21.869Z,14.60
2018-11-10T17:44:23.858Z,14.90
2018-11-10T17:46:25.853Z,17.70
2018-11-10T17:48:27.924Z,17.13
2018-11-10T17:50:29.823Z,16.37
2018-11-10T17:52:31.854Z,16.03
2018-11-10T17:54:33.872Z,15.03
2018-11-10T17:56:35.818Z,14.30
2018-11-10T17:58:37.815Z,14.60
2018-11-10T18:00:39.830Z,14.13
2018-11-10T18:02:41.869Z,13.37
2018-11-10T18:04:43.869Z,13.23
2018-11-10T18:06:45.866Z,10.00
2018-11-10T18:08:47.865Z,11.33
2018-11-10T18:10:49.890Z,11.33
2018-11-10T18:12:51.940Z,10.63
2018-11-10T18:14:54.206Z,9.60
2018-11-10T18:16:56.206Z,10.50
2018-11-10T18:18:58.261Z,10.10
2018-11-10T18:21:00.202Z,9.33
2018-11-10T18:23:02.611Z,9.90
2018-11-10T18:25:04.879Z,10.30
2018-11-10T18:27:06.845Z,10.67
2018-11-10T18:29:09.453Z,8.50
2018-11-10T18:31:11.438Z,9.60
2018-11-10T18:33:13.447Z,9.93
2018-11-10T18:35:15.429Z,9.83
2018-11-10T18:37:17.405Z,9.70
2018-11-10T18:39:19.410Z,10.53
2018-11-10T18:41:21.398Z,9.97
2018-11-10T18:43:23.403Z,10.70
2018-11-10T18:45:25.401Z,10.43
2018-11-10T18:47:27.449Z,10.57
2018-11-10T18:49:29.447Z,9.80
2018-11-10T18:51:31.446Z,8.00
2018-11-10T18:53:33.450Z,9.63
2018-11-10T18:55:35.441Z,10.40
2018-11-10T18:57:37.604Z,8.40
2018-11-10T18:59:39.458Z,9.77
2018-11-10T19:01:41.450Z,8.73
2018-11-10T19:03:43.449Z,9.03
2018-11-10T19:05:45.457Z,9.20
2018-11-10T19:07:47.771Z,8.43
2018-11-10T19:09:50.710Z,8.73
2018-11-10T19:11:52.725Z,8.60
2018-11-10T19:13:54.730Z,8.80
2018-11-10T19:15:56.730Z,7.60
2018-11-10T19:17:58.737Z,8.63
2018-11-10T19:20:00.728Z,7.93
2018-11-10T19:22:02.730Z,9.30
2018-11-10T19:24:05.032Z,8.00
2018-11-10T19:26:07.035Z,5.40
2018-11-10T19:28:09.054Z,7.83
2018-11-10T19:30:15.960Z,8.90
2018-11-10T19:32:18.090Z,8.40
2018-11-10T19:34:19.977Z,7.27
2018-11-10T19:36:21.970Z,5.87
2018-11-10T19:38:23.973Z,9.57
2018-11-10T19:40:25.977Z,8.40
2018-11-10T19:42:27.977Z,8.90
2018-11-10T19:44:30.056Z,8.33
2018-11-10T19:46:32.026Z,9.23
2018-11-10T19:48:34.158Z,8.53
2018-11-10T19:50:36.266Z,7.87
2018-11-10T19:52:38.175Z,9.10
2018-11-10T19:54:40.190Z,10.93
2018-11-10T19:56:42.169Z,9.17
2018-11-10T19:58:44.171Z,9.30
2018-11-10T20:00:46.201Z,9.27
2018-11-10T20:02:48.174Z,10.37
2018-11-10T20:04:50.171Z,9.77
2018-11-10T20:06:52.221Z,9.27
2018-11-10T20:08:54.199Z,10.87
2018-11-10T20:10:56.189Z,10.60
2018-11-10T20:12:58.194Z,9.80
2018-11-10T20:15:00.220Z,10.17
2018-11-10T20:17:02.222Z,9.70
2018-11-10T20:19:04.220Z,9.40
2018-11-10T20:21:06.215Z,9.70
2018-11-10T20:23:08.210Z,10.07
2018-11-10T20:25:12.387Z,10.20
2018-11-10T20:27:14.390Z,10.90
2018-11-10T20:29:16.385Z,11.27
2018-11-10T20:31:18.390Z,11.17
2018-11-10T20:33:20.406Z,12.30
2018-11-10T20:35:22.410Z,10.00
2018-11-10T20:37:24.417Z,9.73
2018-11-10T20:39:26.405Z,11.10
2018-11-10T20:41:28.407Z,11.43
2018-11-10T20:43:30.417Z,11.10
2018-11-10T20:45:32.426Z,11.50
2018-11-10T20:47:34.421Z,9.47
2018-11-10T20:49:36.394Z,11.20
2018-11-10T20:51:38.398Z,10.50
2018-11-10T20:53:40.393Z,11.00
2018-11-10T20:55:42.394Z,9.70
2018-11-10T20:57:44.393Z,10.50
2018-11-10T20:59:46.385Z,11.57
2018-11-10T21:01:48.379Z,9.87
2018-11-10T21:03:50.366Z,10.03
2018-11-10T21:05:52.451Z,10.90
2018-11-10T21:07:54.398Z,12.40
2018-11-10T21:09:56.383Z,11.83
2018-11-10T21:11:58.402Z,11.17
2018-11-10T21:14:00.471Z,12.70
2018-11-10T21:16:02.486Z,11.00
2018-11-10T21:18:04.472Z,10.97
2018-11-10T21:20:07.156Z,10.37
2018-11-10T21:22:16.313Z,9.97
2018-11-10T21:24:18.890Z,9.90
2018-11-10T21:26:20.901Z,10.30
2018-11-10T21:28:22.905Z,9.90
2018-11-10T21:30:24.950Z,11.20
2018-11-10T21:32:26.991Z,9.73
2018-11-10T21:34:29.049Z,10.53
2018-11-10T21:36:31.074Z,9.27
2018-11-10T21:38:33.078Z,10.03
2018-11-10T21:40:35.062Z,8.83
2018-11-10T21:42:37.070Z,9.77
2018-11-10T21:44:39.142Z,10.53
2018-11-10T21:46:41.147Z,11.40
2018-11-10T21:48:43.336Z,10.60
2018-11-10T21:50:45.325Z,9.67
2018-11-10T21:52:47.322Z,10.10
2018-11-10T21:54:49.316Z,11.30
2018-11-10T21:56:51.310Z,10.53
2018-11-10T21:58:53.301Z,10.10
2018-11-10T22:00:55.289Z,9.47
2018-11-10T22:02:57.290Z,8.97
2018-11-10T22:04:59.281Z,10.13
2018-11-10T22:07:01.307Z,8.90
2018-11-10T22:09:05.570Z,9.30
2018-11-10T22:11:07.498Z,9.63
2018-11-10T22:13:09.530Z,9.23
2018-11-10T22:15:12.917Z,9.60
2018-11-10T22:17:14.953Z,8.67
2018-11-10T22:19:16.951Z,9.30
2018-11-10T22:21:18.946Z,12.63
2018-11-10T22:23:20.945Z,11.20
2018-11-10T22:25:22.945Z,10.77
2018-11-10T22:27:24.949Z,12.23
2018-11-10T22:29:26.941Z,11.93
2018-11-10T22:31:28.937Z,14.27
2018-11-10T22:33:30.934Z,12.90
2018-11-10T22:35:33.023Z,11.30
2018-11-10T22:37:35.541Z,14.17
2018-11-10T22:39:37.548Z,12.83
2018-11-10T22:41:39.711Z,10.90
2018-11-10T22:43:42.173Z,11.50
2018-11-10T22:45:44.181Z,11.23
2018-11-10T22:47:46.218Z,11.60
2018-11-10T22:49:48.182Z,10.17
2018-11-10T22:51:50.310Z,11.53
2018-11-10T22:53:52.316Z,12.00
2018-11-10T22:55:54.305Z,9.70
2018-11-10T22:57:56.304Z,12.80
2018-11-10T22:59:58.315Z,13.43
2018-11-10T23:02:00.305Z,13.40
2018-11-10T23:04:02.326Z,12.63
2018-11-10T23:06:04.634Z,12.67
2018-11-10T23:08:06.630Z,9.77
2018-11-10T23:10:08.630Z,13.50
2018-11-10T23:12:10.630Z,11.63
2018-11-10T23:14:12.635Z,13.70
2018-11-10T23:16:14.631Z,11.20
2018-11-10T23:18:16.649Z,11.80
2018-11-10T23:20:19.172Z,14.10
2018-11-10T23:22:21.183Z,11.20
2018-11-10T23:24:23.195Z,11.10
2018-11-10T23:26:25.194Z,9.43
2018-11-10T23:28:27.209Z,9.97
2018-11-10T23:30:29.218Z,10.87
2018-11-10T23:32:31.266Z,10.70
2018-11-10T23:34:33.269Z,10.60
2018-11-10T23:36:35.289Z,10.23
2018-11-10T23:38:37.294Z,10.27
2018-11-10T23:40:39.289Z,9.90
2018-11-10T23:42:41.641Z,10.67
2018-11-10T23:44:43.634Z,9.70
2018-11-10T23:46:45.639Z,9.47
2018-11-10T23:48:47.650Z,10.03
2018-11-10T23:50:49.641Z,10.17
2018-11-10T23:52:51.645Z,10.77
2018-11-10T23:54:53.646Z,10.93
2018-11-10T23:56:55.693Z,10.07
2018-11-10T23:58:57.859Z,9.40
